sensor_id;sensor_type;location;lat;lon;timestamp;pressure;altitude;pressure_sealevel;temperature;humidity
50702;BME280;36670;50.094;8.496;2023-02-12T00:01:09;102450.56;;;9.96;64.87
50702;BME280;36670;50.094;8.496;2023-02-12T00:03:35;102452.69;;;9.94;64.14
50702;BME280;36670;50.094;8.496;2023-02-12T00:06:01;102453.13;;;9.98;64.53
50702;BME280;36670;50.094;8.496;2023-02-12T00:08:26;102458.84;;;9.96;64.37
50702;BME280;36670;50.094;8.496;2023-02-12T00:10:52;102452.22;;;9.90;65.02
50702;BME280;36670;50.094;8.496;2023-02-12T00:13:17;102447.44;;;9.63;65.69
50702;BME280;36670;50.094;8.496;2023-02-12T00:15:42;102455.16;;;9.67;65.06
50702;BME280;36670;50.094;8.496;2023-02-12T00:18:08;102449.56;;;9.82;65.64
50702;BME280;36670;50.094;8.496;2023-02-12T00:20:35;102443.03;;;10.05;64.20
50702;BME280;36670;50.094;8.496;2023-02-12T00:23:01;102446.97;;;10.17;64.54
50702;BME280;36670;50.094;8.496;2023-02-12T00:25:26;102445.91;;;10.18;64.08
50702;BME280;36670;50.094;8.496;2023-02-12T00:27:52;102454.00;;;9.98;64.40
50702;BME280;36670;50.094;8.496;2023-02-12T00:30:17;102446.63;;;9.84;65.21
50702;BME280;36670;50.094;8.496;2023-02-12T00:32:44;102442.78;;;9.63;65.57
50702;BME280;36670;50.094;8.496;2023-02-12T00:35:09;102450.97;;;9.56;65.71
50702;BME280;36670;50.094;8.496;2023-02-12T00:37:34;102449.47;;;9.24;66.53
50702;BME280;36670;50.094;8.496;2023-02-12T00:40:00;102445.13;;;9.30;66.41
50702;BME280;36670;50.094;8.496;2023-02-12T00:42:25;102458.53;;;9.33;65.95
50702;BME280;36670;50.094;8.496;2023-02-12T00:44:50;102464.22;;;9.16;66.44
50702;BME280;36670;50.094;8.496;2023-02-12T00:47:15;102458.34;;;8.90;67.86
50702;BME280;36670;50.094;8.496;2023-02-12T00:49:41;102460.59;;;8.86;66.97
50702;BME280;36670;50.094;8.496;2023-02-12T00:52:06;102450.94;;;9.05;67.29
50702;BME280;36670;50.094;8.496;2023-02-12T00:54:31;102462.22;;;9.10;67.14
50702;BME280;36670;50.094;8.496;2023-02-12T00:56:57;102460.59;;;8.86;67.58
50702;BME280;36670;50.094;8.496;2023-02-12T00:59:24;102459.56;;;8.87;67.50
50702;BME280;36670;50.094;8.496;2023-02-12T01:01:50;102454.34;;;9.07;67.59
50702;BME280;36670;50.094;8.496;2023-02-12T01:04:15;102455.09;;;9.01;67.62
50702;BME280;36670;50.094;8.496;2023-02-12T01:06:41;102457.00;;;9.15;67.51
50702;BME280;36670;50.094;8.496;2023-02-12T01:09:07;102459.09;;;8.98;67.27
50702;BME280;36670;50.094;8.496;2023-02-12T01:11:32;102452.31;;;9.46;66.10
50702;BME280;36670;50.094;8.496;2023-02-12T01:13:58;102452.31;;;9.46;66.88
50702;BME280;36670;50.094;8.496;2023-02-12T01:16:24;102449.06;;;9.94;65.72
50702;BME280;36670;50.094;8.496;2023-02-12T01:18:51;102447.78;;;10.33;64.81
50702;BME280;36670;50.094;8.496;2023-02-12T01:21:20;102442.78;;;10.43;64.15
50702;BME280;36670;50.094;8.496;2023-02-12T01:23:46;102444.03;;;10.69;63.40
50702;BME280;36670;50.094;8.496;2023-02-12T01:26:12;102445.47;;;10.58;64.03
50702;BME280;36670;50.094;8.496;2023-02-12T01:28:39;102441.13;;;10.77;63.23
50702;BME280;36670;50.094;8.496;2023-02-12T01:31:12;102446.50;;;10.85;62.42
50702;BME280;36670;50.094;8.496;2023-02-12T01:33:38;102445.88;;;10.83;62.70
50702;BME280;36670;50.094;8.496;2023-02-12T01:36:04;102441.50;;;10.96;62.75
50702;BME280;36670;50.094;8.496;2023-02-12T01:38:29;102440.47;;;11.03;62.05
50702;BME280;36670;50.094;8.496;2023-02-12T01:41:04;102448.63;;;10.83;62.46
50702;BME280;36670;50.094;8.496;2023-02-12T01:43:32;102447.13;;;10.81;61.84
50702;BME280;36670;50.094;8.496;2023-02-12T01:45:59;102446.91;;;10.82;61.71
50702;BME280;36670;50.094;8.496;2023-02-12T01:48:27;102449.63;;;10.75;61.41
50702;BME280;36670;50.094;8.496;2023-02-12T01:50:54;102446.50;;;10.85;61.38
50702;BME280;36670;50.094;8.496;2023-02-12T01:53:21;102443.75;;;10.85;61.48
50702;BME280;36670;50.094;8.496;2023-02-12T01:55:50;102444.09;;;10.75;62.20
50702;BME280;36670;50.094;8.496;2023-02-12T01:58:18;102438.19;;;10.79;62.40
50702;BME280;36670;50.094;8.496;2023-02-12T02:00:44;102442.00;;;10.78;62.31
50702;BME280;36670;50.094;8.496;2023-02-12T02:03:09;102437.59;;;10.55;62.21
50702;BME280;36670;50.094;8.496;2023-02-12T02:05:46;102439.59;;;10.68;62.19
50702;BME280;36670;50.094;8.496;2023-02-12T02:08:14;102443.13;;;10.62;62.74
50702;BME280;36670;50.094;8.496;2023-02-12T02:10:39;102443.59;;;10.65;62.51
50702;BME280;36670;50.094;8.496;2023-02-12T02:13:05;102447.75;;;10.54;62.09
50702;BME280;36670;50.094;8.496;2023-02-12T02:15:54;102446.19;;;10.23;62.66
50702;BME280;36670;50.094;8.496;2023-02-12T02:21:12;102442.03;;;10.56;62.71
50702;BME280;36670;50.094;8.496;2023-02-12T02:32:09;102434.69;;;10.41;62.51
50702;BME280;36670;50.094;8.496;2023-02-12T02:37:53;102445.00;;;10.11;63.07
50702;BME280;36670;50.094;8.496;2023-02-12T02:40:23;102442.78;;;10.43;62.62
50702;BME280;36670;50.094;8.496;2023-02-12T02:42:55;102445.25;;;10.59;62.60
50702;BME280;36670;50.094;8.496;2023-02-12T02:45:50;102441.19;;;10.55;61.88
50702;BME280;36670;50.094;8.496;2023-02-12T02:48:31;102433.47;;;10.44;62.95
50702;BME280;36670;50.094;8.496;2023-02-12T02:51:05;102430.22;;;10.40;62.80
50702;BME280;36670;50.094;8.496;2023-02-12T02:53:36;102426.63;;;10.40;62.79
50702;BME280;36670;50.094;8.496;2023-02-12T02:56:06;102433.31;;;10.52;61.85
50702;BME280;36670;50.094;8.496;2023-02-12T02:58:42;102426.34;;;10.35;62.04
50702;BME280;36670;50.094;8.496;2023-02-12T03:01:12;102421.22;;;10.32;61.67
50702;BME280;36670;50.094;8.496;2023-02-12T03:03:50;102435.47;;;9.92;62.98
50702;BME280;36670;50.094;8.496;2023-02-12T03:09:01;102430.22;;;9.97;62.52
50702;BME280;36670;50.094;8.496;2023-02-12T03:11:31;102426.97;;;9.94;62.74
50702;BME280;36670;50.094;8.496;2023-02-12T03:14:08;102431.19;;;10.11;62.77
50702;BME280;36670;50.094;8.496;2023-02-12T03:16:44;102428.91;;;10.15;62.08
50702;BME280;36670;50.094;8.496;2023-02-12T03:19:16;102425.16;;;10.22;62.40
50702;BME280;36670;50.094;8.496;2023-02-12T03:21:46;102434.22;;;10.38;62.41
50702;BME280;36670;50.094;8.496;2023-02-12T03:24:20;102432.72;;;10.35;62.62
50702;BME280;36670;50.094;8.496;2023-02-12T03:26:50;102434.81;;;10.55;61.78
50702;BME280;36670;50.094;8.496;2023-02-12T03:29:18;102438.22;;;10.57;62.04
50702;BME280;36670;50.094;8.496;2023-02-12T03:34:48;102436.50;;;10.56;61.54
50702;BME280;36670;50.094;8.496;2023-02-12T03:37:24;102445.00;;;10.54;61.98
50702;BME280;36670;50.094;8.496;2023-02-12T03:45:03;102434.22;;;10.38;62.66
50702;BME280;36670;50.094;8.496;2023-02-12T03:47:46;102440.34;;;10.55;61.58
50702;BME280;36670;50.094;8.496;2023-02-12T03:50:20;102434.84;;;10.62;61.02
50702;BME280;36670;50.094;8.496;2023-02-12T03:52:49;102434.88;;;10.18;61.97
50702;BME280;36670;50.094;8.496;2023-02-12T03:55:15;102436.72;;;10.11;61.88
50702;BME280;36670;50.094;8.496;2023-02-12T03:57:48;102448.16;;;10.08;63.13
50702;BME280;36670;50.094;8.496;2023-02-12T04:00:23;102445.59;;;10.28;62.32
50702;BME280;36670;50.094;8.496;2023-02-12T04:02:50;102451.13;;;10.50;62.12
50702;BME280;36670;50.094;8.496;2023-02-12T04:05:19;102450.09;;;10.51;61.82
50702;BME280;36670;50.094;8.496;2023-02-12T04:07:45;102452.13;;;10.42;61.81
50702;BME280;36670;50.094;8.496;2023-02-12T04:10:11;102460.88;;;10.46;62.28
50702;BME280;36670;50.094;8.496;2023-02-12T04:12:48;102464.28;;;10.48;61.63
50702;BME280;36670;50.094;8.496;2023-02-12T04:15:37;102459.47;;;9.77;63.35
50702;BME280;36670;50.094;8.496;2023-02-12T04:18:22;102457.66;;;9.32;64.75
50702;BME280;36670;50.094;8.496;2023-02-12T04:28:54;102469.91;;;9.45;64.86
50702;BME280;36670;50.094;8.496;2023-02-12T04:36:58;102474.88;;;9.49;64.50
50702;BME280;36670;50.094;8.496;2023-02-12T04:39:29;102475.94;;;9.70;64.58
50702;BME280;36670;50.094;8.496;2023-02-12T04:41:58;102479.59;;;9.55;64.26
50702;BME280;36670;50.094;8.496;2023-02-12T04:44:27;102488.59;;;9.64;64.27
50702;BME280;36670;50.094;8.496;2023-02-12T04:46:52;102489.69;;;9.63;64.30
50702;BME280;36670;50.094;8.496;2023-02-12T04:49:20;102486.34;;;9.68;64.40
50702;BME280;36670;50.094;8.496;2023-02-12T04:51:45;102485.22;;;9.99;63.35
50702;BME280;36670;50.094;8.496;2023-02-12T04:54:12;102491.88;;;9.89;64.17
50702;BME280;36670;50.094;8.496;2023-02-12T04:56:38;102486.81;;;10.08;63.71
50702;BME280;36670;50.094;8.496;2023-02-12T04:59:04;102490.16;;;10.25;62.93
50702;BME280;36670;50.094;8.496;2023-02-12T05:01:30;102493.41;;;10.29;62.67
50702;BME280;36670;50.094;8.496;2023-02-12T05:03:57;102491.78;;;10.34;62.63
50702;BME280;36670;50.094;8.496;2023-02-12T05:06:22;102487.56;;;10.38;62.23
50702;BME280;36670;50.094;8.496;2023-02-12T05:08:47;102485.19;;;10.35;62.38
50702;BME280;36670;50.094;8.496;2023-02-12T05:11:12;102479.66;;;10.35;62.71
50702;BME280;36670;50.094;8.496;2023-02-12T05:13:38;102485.47;;;10.25;63.02
50702;BME280;36670;50.094;8.496;2023-02-12T05:16:04;102475.16;;;10.13;63.15
50702;BME280;36670;50.094;8.496;2023-02-12T05:18:30;102481.06;;;10.31;62.57
50702;BME280;36670;50.094;8.496;2023-02-12T05:21:01;102474.72;;;10.31;62.05
50702;BME280;36670;50.094;8.496;2023-02-12T05:23:28;102478.06;;;10.26;62.44
50702;BME280;36670;50.094;8.496;2023-02-12T05:25:53;102477.00;;;10.05;62.78
50702;BME280;36670;50.094;8.496;2023-02-12T05:28:19;102482.34;;;10.29;62.80
50702;BME280;36670;50.094;8.496;2023-02-12T05:30:44;102477.72;;;10.51;61.62
50702;BME280;36670;50.094;8.496;2023-02-12T05:33:09;102480.50;;;10.57;61.71
50702;BME280;36670;50.094;8.496;2023-02-12T05:35:35;102481.19;;;10.59;61.29
50702;BME280;36670;50.094;8.496;2023-02-12T05:38:00;102478.16;;;10.54;61.75
50702;BME280;36670;50.094;8.496;2023-02-12T05:40:25;102472.19;;;10.51;61.50
50702;BME280;36670;50.094;8.496;2023-02-12T05:42:50;102473.72;;;10.17;62.17
50702;BME280;36670;50.094;8.496;2023-02-12T05:45:16;102476.41;;;10.10;62.11
50702;BME280;36670;50.094;8.496;2023-02-12T05:47:41;102478.47;;;10.23;61.88
50702;BME280;36670;50.094;8.496;2023-02-12T05:50:07;102477.28;;;10.11;62.55
50702;BME280;36670;50.094;8.496;2023-02-12T05:52:32;102475.72;;;9.86;62.78
50702;BME280;36670;50.094;8.496;2023-02-12T05:54:58;102476.59;;;10.08;62.97
50702;BME280;36670;50.094;8.496;2023-02-12T05:57:23;102478.97;;;10.33;61.91
50702;BME280;36670;50.094;8.496;2023-02-12T05:59:48;102487.19;;;10.27;62.29
50702;BME280;36670;50.094;8.496;2023-02-12T06:02:13;102483.84;;;10.31;61.90
50702;BME280;36670;50.094;8.496;2023-02-12T06:04:39;102480.59;;;10.43;61.56
50702;BME280;36670;50.094;8.496;2023-02-12T06:07:04;102487.63;;;10.45;61.14
50702;BME280;36670;50.094;8.496;2023-02-12T06:09:31;102483.59;;;10.48;61.12
50702;BME280;36670;50.094;8.496;2023-02-12T06:11:56;102495.53;;;10.12;62.16
50702;BME280;36670;50.094;8.496;2023-02-12T06:14:22;102491.94;;;10.11;62.33
50702;BME280;36670;50.094;8.496;2023-02-12T06:16:49;102483.50;;;9.98;62.88
50702;BME280;36670;50.094;8.496;2023-02-12T06:19:15;102488.00;;;10.20;61.84
50702;BME280;36670;50.094;8.496;2023-02-12T06:21:41;102491.13;;;10.17;62.52
50702;BME280;36670;50.094;8.496;2023-02-12T06:24:06;102495.38;;;10.35;61.65
50702;BME280;36670;50.094;8.496;2023-02-12T06:26:32;102497.72;;;10.16;62.12
50702;BME280;36670;50.094;8.496;2023-02-12T06:28:57;102503.00;;;10.33;62.29
50702;BME280;36670;50.094;8.496;2023-02-12T06:31:25;102498.50;;;10.32;61.58
50702;BME280;36670;50.094;8.496;2023-02-12T06:33:52;102506.31;;;10.43;61.38
50702;BME280;36670;50.094;8.496;2023-02-12T06:36:18;102508.47;;;10.48;61.54
50702;BME280;36670;50.094;8.496;2023-02-12T06:38:44;102505.56;;;10.56;60.93
50702;BME280;36670;50.094;8.496;2023-02-12T06:41:10;102515.38;;;10.58;60.84
50702;BME280;36670;50.094;8.496;2023-02-12T06:43:35;102508.78;;;10.38;61.07
50702;BME280;36670;50.094;8.496;2023-02-12T06:46:02;102526.97;;;10.32;61.75
50702;BME280;36670;50.094;8.496;2023-02-12T06:48:28;102517.38;;;10.28;61.77
50702;BME280;36670;50.094;8.496;2023-02-12T06:50:53;102520.06;;;10.21;61.95
50702;BME280;36670;50.094;8.496;2023-02-12T06:53:18;102508.44;;;10.26;61.92
50702;BME280;36670;50.094;8.496;2023-02-12T06:55:44;102525.13;;;10.18;61.98
50702;BME280;36670;50.094;8.496;2023-02-12T06:58:09;102523.25;;;10.03;62.51
50702;BME280;36670;50.094;8.496;2023-02-12T07:00:34;102527.50;;;10.21;62.40
50702;BME280;36670;50.094;8.496;2023-02-12T07:03:00;102524.84;;;10.13;62.31
50702;BME280;36670;50.094;8.496;2023-02-12T07:05:25;102524.00;;;10.12;62.39
50702;BME280;36670;50.094;8.496;2023-02-12T07:07:50;102534.53;;;10.38;61.81
50702;BME280;36670;50.094;8.496;2023-02-12T07:10:17;102532.69;;;10.09;62.10
50702;BME280;36670;50.094;8.496;2023-02-12T07:12:42;102531.41;;;9.60;63.97
50702;BME280;36670;50.094;8.496;2023-02-12T07:15:08;102545.50;;;9.35;65.35
50702;BME280;36670;50.094;8.496;2023-02-12T07:17:33;102534.00;;;9.32;65.36
50702;BME280;36670;50.094;8.496;2023-02-12T07:19:59;102544.66;;;9.20;65.88
50702;BME280;36670;50.094;8.496;2023-02-12T07:22:24;102538.47;;;9.33;65.71
50702;BME280;36670;50.094;8.496;2023-02-12T07:24:50;102545.78;;;9.26;66.04
50702;BME280;36670;50.094;8.496;2023-02-12T07:27:16;102549.00;;;9.29;66.10
50702;BME280;36670;50.094;8.496;2023-02-12T07:29:41;102540.06;;;9.12;66.36
50702;BME280;36670;50.094;8.496;2023-02-12T07:32:06;102548.81;;;9.31;65.30
50702;BME280;36670;50.094;8.496;2023-02-12T07:34:32;102547.00;;;9.68;64.62
50702;BME280;36670;50.094;8.496;2023-02-12T07:36:57;102554.63;;;9.51;64.78
50702;BME280;36670;50.094;8.496;2023-02-12T07:39:22;102552.06;;;9.34;65.62
50702;BME280;36670;50.094;8.496;2023-02-12T07:41:47;102544.44;;;9.21;65.45
50702;BME280;36670;50.094;8.496;2023-02-12T07:44:13;102552.34;;;8.86;66.79
50702;BME280;36670;50.094;8.496;2023-02-12T07:46:43;102555.72;;;8.74;67.29
50702;BME280;36670;50.094;8.496;2023-02-12T07:49:20;102558.53;;;8.88;67.44
50702;BME280;36670;50.094;8.496;2023-02-12T07:51:47;102563.94;;;8.82;66.93
50702;BME280;36670;50.094;8.496;2023-02-12T07:54:13;102559.31;;;8.97;67.29
50702;BME280;36670;50.094;8.496;2023-02-12T07:56:40;102555.25;;;9.08;66.56
50702;BME280;36670;50.094;8.496;2023-02-12T07:59:09;102561.00;;;9.21;66.26
50702;BME280;36670;50.094;8.496;2023-02-12T08:01:37;102565.84;;;9.34;66.03
50702;BME280;36670;50.094;8.496;2023-02-12T08:04:05;102565.84;;;8.81;68.41
50702;BME280;36670;50.094;8.496;2023-02-12T08:06:33;102575.19;;;8.72;67.72
50702;BME280;36670;50.094;8.496;2023-02-12T08:09:02;102566.69;;;9.20;67.40
50702;BME280;36670;50.094;8.496;2023-02-12T08:11:28;102568.25;;;8.99;67.82
50702;BME280;36670;50.094;8.496;2023-02-12T08:13:55;102571.03;;;9.14;68.17
50702;BME280;36670;50.094;8.496;2023-02-12T08:16:23;102573.06;;;9.35;67.74
50702;BME280;36670;50.094;8.496;2023-02-12T08:18:49;102576.88;;;9.49;67.36
50702;BME280;36670;50.094;8.496;2023-02-12T08:21:17;102574.50;;;9.46;66.94
50702;BME280;36670;50.094;8.496;2023-02-12T08:23:43;102571.94;;;9.60;66.65
50702;BME280;36670;50.094;8.496;2023-02-12T08:26:14;102577.72;;;9.20;68.06
50702;BME280;36670;50.094;8.496;2023-02-12T08:28:44;102577.53;;;9.36;67.89
50702;BME280;36670;50.094;8.496;2023-02-12T08:31:21;102583.06;;;9.66;67.00
50702;BME280;36670;50.094;8.496;2023-02-12T08:33:48;102570.75;;;9.84;66.36
50702;BME280;36670;50.094;8.496;2023-02-12T08:36:16;102570.47;;;9.94;66.51
50702;BME280;36670;50.094;8.496;2023-02-12T08:38:43;102578.81;;;10.15;66.25
50702;BME280;36670;50.094;8.496;2023-02-12T08:41:23;102576.88;;;10.31;66.73
50702;BME280;36670;50.094;8.496;2023-02-12T08:43:51;102564.09;;;10.30;65.84
50702;BME280;36670;50.094;8.496;2023-02-12T08:46:21;102571.78;;;10.13;66.79
50702;BME280;36670;50.094;8.496;2023-02-12T08:48:47;102574.22;;;10.37;65.89
50702;BME280;36670;50.094;8.496;2023-02-12T08:51:15;102575.34;;;10.43;65.76
50702;BME280;36670;50.094;8.496;2023-02-12T08:53:42;102577.53;;;10.69;65.58
50702;BME280;36670;50.094;8.496;2023-02-12T08:56:09;102584.66;;;10.42;66.03
50702;BME280;36670;50.094;8.496;2023-02-12T08:58:35;102585.75;;;10.84;66.06
50702;BME280;36670;50.094;8.496;2023-02-12T09:01:01;102587.72;;;10.47;65.33
50702;BME280;36670;50.094;8.496;2023-02-12T09:03:27;102579.69;;;10.74;64.34
50702;BME280;36670;50.094;8.496;2023-02-12T09:05:52;102582.66;;;9.99;66.76
50702;BME280;36670;50.094;8.496;2023-02-12T09:08:18;102579.09;;;10.20;66.47
50702;BME280;36670;50.094;8.496;2023-02-12T09:10:44;102583.34;;;10.38;66.36
50702;BME280;36670;50.094;8.496;2023-02-12T09:13:11;102585.88;;;10.76;65.84
50702;BME280;36670;50.094;8.496;2023-02-12T09:15:44;102596.25;;;10.74;64.81
50702;BME280;36670;50.094;8.496;2023-02-12T09:18:10;102589.34;;;10.63;66.10
50702;BME280;36670;50.094;8.496;2023-02-12T09:20:38;102594.16;;;10.98;65.67
50702;BME280;36670;50.094;8.496;2023-02-12T09:23:05;102593.09;;;10.77;65.68
50702;BME280;36670;50.094;8.496;2023-02-12T09:25:31;102591.38;;;10.54;66.90
50702;BME280;36670;50.094;8.496;2023-02-12T09:28:00;102594.16;;;10.98;65.85
50702;BME280;36670;50.094;8.496;2023-02-12T09:30:25;102595.78;;;11.14;65.34
50702;BME280;36670;50.094;8.496;2023-02-12T09:32:50;102599.09;;;10.81;64.58
50702;BME280;36670;50.094;8.496;2023-02-12T09:35:16;102596.38;;;10.66;64.87
50702;BME280;36670;50.094;8.496;2023-02-12T09:37:42;102595.00;;;10.03;66.93
50702;BME280;36670;50.094;8.496;2023-02-12T09:43:24;102605.78;;;9.98;66.65
50702;BME280;36670;50.094;8.496;2023-02-12T09:45:36;102606.84;;;9.67;68.32
50702;BME280;36670;50.094;8.496;2023-02-12T09:51:02;102603.75;;;10.07;67.83
50702;BME280;36670;50.094;8.496;2023-02-12T09:53:34;102600.25;;;10.13;67.08
50702;BME280;36670;50.094;8.496;2023-02-12T09:56:00;102599.22;;;9.99;68.42
50702;BME280;36670;50.094;8.496;2023-02-12T10:00:54;102604.03;;;10.27;67.42
50702;BME280;36670;50.094;8.496;2023-02-12T10:03:19;102597.50;;;10.50;66.76
50702;BME280;36670;50.094;8.496;2023-02-12T10:05:49;102604.09;;;10.34;67.50
50702;BME280;36670;50.094;8.496;2023-02-12T10:08:33;102601.53;;;10.32;67.38
50702;BME280;36670;50.094;8.496;2023-02-12T10:11:23;102600.34;;;10.56;66.78
50702;BME280;36670;50.094;8.496;2023-02-12T10:22:01;102614.06;;;9.83;69.22
50702;BME280;36670;50.094;8.496;2023-02-12T10:27:43;102606.41;;;10.15;68.10
50702;BME280;36670;50.094;8.496;2023-02-12T10:30:19;102606.53;;;10.07;68.24
50702;BME280;36670;50.094;8.496;2023-02-12T10:32:46;102611.59;;;10.55;66.92
50702;BME280;36670;50.094;8.496;2023-02-12T10:35:16;102610.75;;;10.76;67.06
50702;BME280;36670;50.094;8.496;2023-02-12T10:37:59;102599.03;;;10.96;65.51
50702;BME280;36670;50.094;8.496;2023-02-12T10:40:30;102602.97;;;11.08;66.28
50702;BME280;36670;50.094;8.496;2023-02-12T10:42:59;102600.63;;;10.83;66.77
50702;BME280;36670;50.094;8.496;2023-02-12T10:45:36;102597.81;;;11.05;66.18
50702;BME280;36670;50.094;8.496;2023-02-12T10:48:10;102596.81;;;10.84;67.04
50702;BME280;36670;50.094;8.496;2023-02-12T10:50:46;102592.91;;;10.57;66.86
50702;BME280;36670;50.094;8.496;2023-02-12T10:53:23;102595.72;;;11.07;65.44
50702;BME280;36670;50.094;8.496;2023-02-12T10:56:03;102591.34;;;10.33;67.79
50702;BME280;36670;50.094;8.496;2023-02-12T10:58:30;102584.53;;;10.50;67.80
50702;BME280;36670;50.094;8.496;2023-02-12T11:00:57;102587.78;;;10.54;67.77
50702;BME280;36670;50.094;8.496;2023-02-12T11:03:28;102582.56;;;10.66;67.19
50702;BME280;36670;50.094;8.496;2023-02-12T11:05:53;102576.66;;;10.69;66.88
50702;BME280;36670;50.094;8.496;2023-02-12T11:08:34;102573.66;;;10.64;67.61
50702;BME280;36670;50.094;8.496;2023-02-12T11:14:01;102570.22;;;10.83;66.82
50702;BME280;36670;50.094;8.496;2023-02-12T11:16:42;102567.88;;;10.87;67.12
50702;BME280;36670;50.094;8.496;2023-02-12T11:19:20;102563.53;;;10.99;67.30
50702;BME280;36670;50.094;8.496;2023-02-12T11:21:46;102559.31;;;11.67;64.86
50702;BME280;36670;50.094;8.496;2023-02-12T11:24:28;102559.88;;;11.49;64.94
50702;BME280;36670;50.094;8.496;2023-02-12T11:29:44;102560.28;;;11.46;65.53
50702;BME280;36670;50.094;8.496;2023-02-12T11:32:18;102556.28;;;11.55;64.45
50702;BME280;36670;50.094;8.496;2023-02-12T11:34:43;102555.34;;;11.13;66.40
50702;BME280;36670;50.094;8.496;2023-02-12T11:37:22;102552.88;;;11.53;65.77
50702;BME280;36670;50.094;8.496;2023-02-12T11:39:49;102547.75;;;11.91;64.42
50702;BME280;36670;50.094;8.496;2023-02-12T11:42:24;102537.41;;;12.20;64.41
50702;BME280;36670;50.094;8.496;2023-02-12T11:44:56;102543.16;;;12.05;63.67
50702;BME280;36670;50.094;8.496;2023-02-12T11:47:25;102546.22;;;11.12;65.00
50702;BME280;36670;50.094;8.496;2023-02-12T11:50:06;102544.22;;;11.34;65.71
50702;BME280;36670;50.094;8.496;2023-02-12T11:52:36;102540.22;;;11.78;64.76
50702;BME280;36670;50.094;8.496;2023-02-12T11:55:09;102529.09;;;12.07;64.50
50702;BME280;36670;50.094;8.496;2023-02-12T12:02:48;102521.00;;;11.70;64.43
50702;BME280;36670;50.094;8.496;2023-02-12T12:05:17;102533.09;;;11.21;65.55
50702;BME280;36670;50.094;8.496;2023-02-12T12:07:49;102528.94;;;11.38;64.81
50702;BME280;36670;50.094;8.496;2023-02-12T12:12:55;102517.56;;;11.61;64.75
50702;BME280;36670;50.094;8.496;2023-02-12T12:15:27;102521.94;;;11.77;64.14
50702;BME280;36670;50.094;8.496;2023-02-12T12:18:33;102511.31;;;11.88;63.89
50702;BME280;36670;50.094;8.496;2023-02-12T12:21:35;102514.72;;;11.83;64.00
50702;BME280;36670;50.094;8.496;2023-02-12T12:24:19;102499.03;;;11.55;64.22
50702;BME280;36670;50.094;8.496;2023-02-12T12:26:49;102505.31;;;11.84;64.40
50702;BME280;36670;50.094;8.496;2023-02-12T12:29:49;102496.84;;;11.86;64.73
50702;BME280;36670;50.094;8.496;2023-02-12T12:32:18;102495.00;;;12.06;63.76
50702;BME280;36670;50.094;8.496;2023-02-12T12:34:46;102500.69;;;11.91;63.06
50702;BME280;36670;50.094;8.496;2023-02-12T12:37:39;102492.94;;;11.73;64.78
50702;BME280;36670;50.094;8.496;2023-02-12T12:42:55;102489.72;;;11.70;63.95
50702;BME280;36670;50.094;8.496;2023-02-12T12:46:02;102489.78;;;11.76;63.72
50702;BME280;36670;50.094;8.496;2023-02-12T12:54:10;102473.97;;;12.59;63.33
50702;BME280;36670;50.094;8.496;2023-02-12T12:56:51;102466.75;;;12.78;61.90
50702;BME280;36670;50.094;8.496;2023-02-12T13:05:32;102461.38;;;12.09;62.96
50702;BME280;36670;50.094;8.496;2023-02-12T13:13:38;102456.41;;;11.91;64.37
50702;BME280;36670;50.094;8.496;2023-02-12T13:18:57;102463.72;;;12.12;63.47
50702;BME280;36670;50.094;8.496;2023-02-12T13:22:02;102453.94;;;12.70;62.07
50702;BME280;36670;50.094;8.496;2023-02-12T13:24:42;102461.41;;;12.56;61.65
50702;BME280;36670;50.094;8.496;2023-02-12T13:27:14;102450.53;;;12.61;61.81
50702;BME280;36670;50.094;8.496;2023-02-12T13:29:45;102452.66;;;12.66;62.56
50702;BME280;36670;50.094;8.496;2023-02-12T13:32:17;102453.50;;;12.26;62.64
50702;BME280;36670;50.094;8.496;2023-02-12T13:34:44;102451.13;;;12.10;63.40
50702;BME280;36670;50.094;8.496;2023-02-12T13:37:18;102444.66;;;11.89;63.30
50702;BME280;36670;50.094;8.496;2023-02-12T13:39:47;102443.72;;;12.37;62.18
50702;BME280;36670;50.094;8.496;2023-02-12T13:42:31;102448.78;;;12.87;61.65
50702;BME280;36670;50.094;8.496;2023-02-12T13:45:37;102444.34;;;12.73;62.32
50702;BME280;36670;50.094;8.496;2023-02-12T13:56:42;102438.38;;;12.29;61.76
50702;BME280;36670;50.094;8.496;2023-02-12T14:01:54;102442.88;;;12.43;62.02
50702;BME280;36670;50.094;8.496;2023-02-12T14:09:36;102442.75;;;11.83;62.64
50702;BME280;36670;50.094;8.496;2023-02-12T14:12:04;102440.47;;;12.13;61.67
50702;BME280;36670;50.094;8.496;2023-02-12T14:15:07;102433.84;;;11.94;62.52
50702;BME280;36670;50.094;8.496;2023-02-12T14:20:07;102440.31;;;12.42;62.07
50702;BME280;36670;50.094;8.496;2023-02-12T14:27:54;102443.94;;;12.56;60.62
50702;BME280;36670;50.094;8.496;2023-02-12T14:30:34;102439.69;;;12.67;60.25
50702;BME280;36670;50.094;8.496;2023-02-12T14:35:34;102424.28;;;12.84;60.54
50702;BME280;36670;50.094;8.496;2023-02-12T14:38:02;102423.00;;;12.73;60.31
50702;BME280;36670;50.094;8.496;2023-02-12T14:45:49;102429.81;;;12.10;61.60
50702;BME280;36670;50.094;8.496;2023-02-12T14:48:49;102427.09;;;12.37;61.34
50702;BME280;36670;50.094;8.496;2023-02-12T14:51:25;102421.97;;;12.34;62.08
50702;BME280;36670;50.094;8.496;2023-02-12T14:53:54;102422.59;;;12.70;61.40
50702;BME280;36670;50.094;8.496;2023-02-12T14:56:22;102425.38;;;12.56;60.81
50702;BME280;36670;50.094;8.496;2023-02-12T14:58:49;102423.66;;;12.28;60.79
50702;BME280;36670;50.094;8.496;2023-02-12T15:01:16;102426.22;;;12.30;60.86
50702;BME280;36670;50.094;8.496;2023-02-12T15:03:50;102430.03;;;12.09;61.63
50702;BME280;36670;50.094;8.496;2023-02-12T15:06:21;102428.34;;;12.21;61.43
50702;BME280;36670;50.094;8.496;2023-02-12T15:08:52;102421.56;;;12.37;61.79
50702;BME280;36670;50.094;8.496;2023-02-12T15:11:27;102429.03;;;12.50;61.07
50702;BME280;36670;50.094;8.496;2023-02-12T15:14:03;102421.97;;;12.48;61.67